Terminal Aerodrome Forecast
Issued by NWS

Home | Current Version | Previous Version | Graphics & Text | Print | Product List | Glossary On
Versions: 1 2 3 4 5 6 7 8 9 10 11 12 13 14 15 16 17 18 19 20 21 22 23 24 25 26 27 28 29 30 31 32 33 34
000
FTUS43 KTOP 010800 AAB
TAFFOE
TAF AMD
KFOE 010859Z 0109/0206 15012KT 6SM -RA BR VCTS SCT015 BKN080CB
      TEMPO 0110/0113 4SM BR SCT010
     FM011300 32007KT P6SM SCT025 BKN150
     FM012000 36008KT P6SM VCTS SCT035CB BKN150
     FM020200 02006KT P6SM OVC050=

USA.gov is the U.S. government's official web portal to all federal, state and local government web resources and services.